sensor_id;sensor_type;location;lat;lon;timestamp;temperature;humidity
63537;DHT22;49686;51.880;5.632;2023-03-01T00:00:38;-3.20;99.90
63537;DHT22;49686;51.880;5.632;2023-03-01T00:03:05;-3.20;99.90
63537;DHT22;49686;51.880;5.632;2023-03-01T00:05:33;-3.30;99.90
63537;DHT22;49686;51.880;5.632;2023-03-01T00:08:00;-3.40;99.90
63537;DHT22;49686;51.880;5.632;2023-03-01T00:10:29;-3.50;99.90
63537;DHT22;49686;51.880;5.632;2023-03-01T00:12:55;-3.80;99.90
63537;DHT22;49686;51.880;5.632;2023-03-01T00:15:22;-3.90;99.90
63537;DHT22;49686;51.880;5.632;2023-03-01T00:17:49;-3.80;99.90
63537;DHT22;49686;51.880;5.632;2023-03-01T00:20:16;-3.80;99.90
63537;DHT22;49686;51.880;5.632;2023-03-01T00:22:44;-4.00;99.90
63537;DHT22;49686;51.880;5.632;2023-03-01T00:25:11;-3.90;99.90
63537;DHT22;49686;51.880;5.632;2023-03-01T00:27:37;-3.80;99.90
63537;DHT22;49686;51.880;5.632;2023-03-01T00:30:05;-3.80;99.90
63537;DHT22;49686;51.880;5.632;2023-03-01T00:32:32;-3.60;99.90
63537;DHT22;49686;51.880;5.632;2023-03-01T00:35:01;-3.70;99.90
63537;DHT22;49686;51.880;5.632;2023-03-01T00:37:27;-3.70;99.90
63537;DHT22;49686;51.880;5.632;2023-03-01T00:39:56;-3.70;99.90
63537;DHT22;49686;51.880;5.632;2023-03-01T00:42:22;-3.90;99.90
63537;DHT22;49686;51.880;5.632;2023-03-01T00:44:49;-4.00;99.90
63537;DHT22;49686;51.880;5.632;2023-03-01T00:47:16;-3.90;99.90
63537;DHT22;49686;51.880;5.632;2023-03-01T00:49:43;-3.70;99.90
63537;DHT22;49686;51.880;5.632;2023-03-01T00:52:09;-3.80;99.90
63537;DHT22;49686;51.880;5.632;2023-03-01T00:54:36;-3.80;99.90
63537;DHT22;49686;51.880;5.632;2023-03-01T00:57:04;-3.90;99.90
63537;DHT22;49686;51.880;5.632;2023-03-01T00:59:31;-3.90;99.90
63537;DHT22;49686;51.880;5.632;2023-03-01T01:01:58;-3.70;99.90
63537;DHT22;49686;51.880;5.632;2023-03-01T01:04:25;-3.90;99.90
63537;DHT22;49686;51.880;5.632;2023-03-01T01:06:52;-3.90;99.90
63537;DHT22;49686;51.880;5.632;2023-03-01T01:09:19;-4.00;99.90
63537;DHT22;49686;51.880;5.632;2023-03-01T01:11:48;-3.90;99.90
63537;DHT22;49686;51.880;5.632;2023-03-01T01:14:17;-4.00;99.90
63537;DHT22;49686;51.880;5.632;2023-03-01T01:16:44;-4.20;99.90
63537;DHT22;49686;51.880;5.632;2023-03-01T01:19:11;-4.20;99.90
63537;DHT22;49686;51.880;5.632;2023-03-01T01:21:38;-4.10;99.90
63537;DHT22;49686;51.880;5.632;2023-03-01T01:24:05;-4.10;99.90
63537;DHT22;49686;51.880;5.632;2023-03-01T01:26:34;-4.10;99.90
63537;DHT22;49686;51.880;5.632;2023-03-01T01:29:02;-4.10;99.90
63537;DHT22;49686;51.880;5.632;2023-03-01T01:31:31;-4.20;99.90
63537;DHT22;49686;51.880;5.632;2023-03-01T01:33:59;-4.10;99.90
63537;DHT22;49686;51.880;5.632;2023-03-01T01:36:26;-4.10;99.90
63537;DHT22;49686;51.880;5.632;2023-03-01T01:38:54;-4.10;99.90
63537;DHT22;49686;51.880;5.632;2023-03-01T01:41:22;-4.00;99.90
63537;DHT22;49686;51.880;5.632;2023-03-01T01:44:08;-4.00;99.90
63537;DHT22;49686;51.880;5.632;2023-03-01T01:46:38;-4.20;99.90
63537;DHT22;49686;51.880;5.632;2023-03-01T01:49:16;-4.40;99.90
63537;DHT22;49686;51.880;5.632;2023-03-01T01:51:45;-4.30;99.90
63537;DHT22;49686;51.880;5.632;2023-03-01T01:54:16;-4.10;99.90
63537;DHT22;49686;51.880;5.632;2023-03-01T01:56:49;-4.00;99.90
63537;DHT22;49686;51.880;5.632;2023-03-01T01:59:18;-3.90;99.90
63537;DHT22;49686;51.880;5.632;2023-03-01T02:01:46;-4.20;99.90
63537;DHT22;49686;51.880;5.632;2023-03-01T02:04:12;-4.40;99.90
63537;DHT22;49686;51.880;5.632;2023-03-01T02:06:44;-4.40;99.90
63537;DHT22;49686;51.880;5.632;2023-03-01T02:09:14;-4.50;99.90
63537;DHT22;49686;51.880;5.632;2023-03-01T02:11:42;-4.70;99.90
63537;DHT22;49686;51.880;5.632;2023-03-01T02:14:10;-4.50;99.90
63537;DHT22;49686;51.880;5.632;2023-03-01T02:16:37;-4.60;99.90
63537;DHT22;49686;51.880;5.632;2023-03-01T02:19:05;-4.60;99.90
63537;DHT22;49686;51.880;5.632;2023-03-01T02:21:38;-4.50;99.90
63537;DHT22;49686;51.880;5.632;2023-03-01T02:24:17;-4.50;99.90
63537;DHT22;49686;51.880;5.632;2023-03-01T02:26:50;-4.50;99.90
63537;DHT22;49686;51.880;5.632;2023-03-01T02:29:20;-4.50;99.90
63537;DHT22;49686;51.880;5.632;2023-03-01T02:31:47;-4.40;99.90
63537;DHT22;49686;51.880;5.632;2023-03-01T02:34:16;-4.30;99.90
63537;DHT22;49686;51.880;5.632;2023-03-01T02:36:45;-4.30;99.90
63537;DHT22;49686;51.880;5.632;2023-03-01T02:39:16;-4.30;99.90
63537;DHT22;49686;51.880;5.632;2023-03-01T02:41:46;-4.30;99.90
63537;DHT22;49686;51.880;5.632;2023-03-01T02:44:14;-4.40;99.90
63537;DHT22;49686;51.880;5.632;2023-03-01T02:46:45;-4.40;99.90
63537;DHT22;49686;51.880;5.632;2023-03-01T02:49:23;-4.40;99.90
63537;DHT22;49686;51.880;5.632;2023-03-01T02:52:16;-4.40;99.90
63537;DHT22;49686;51.880;5.632;2023-03-01T02:54:47;-4.40;99.90
63537;DHT22;49686;51.880;5.632;2023-03-01T02:57:17;-4.40;99.90
63537;DHT22;49686;51.880;5.632;2023-03-01T02:59:44;-4.40;99.90
63537;DHT22;49686;51.880;5.632;2023-03-01T03:02:21;-4.40;99.90
63537;DHT22;49686;51.880;5.632;2023-03-01T03:04:48;-4.40;99.90
63537;DHT22;49686;51.880;5.632;2023-03-01T03:07:15;-4.30;99.90
63537;DHT22;49686;51.880;5.632;2023-03-01T03:09:44;-4.30;99.90
63537;DHT22;49686;51.880;5.632;2023-03-01T03:12:12;-4.20;99.90
63537;DHT22;49686;51.880;5.632;2023-03-01T03:14:39;-4.10;99.90
63537;DHT22;49686;51.880;5.632;2023-03-01T03:17:05;-4.00;99.90
63537;DHT22;49686;51.880;5.632;2023-03-01T03:19:33;-4.10;99.90
63537;DHT22;49686;51.880;5.632;2023-03-01T03:22:00;-4.00;99.90
63537;DHT22;49686;51.880;5.632;2023-03-01T03:24:27;-4.10;99.90
63537;DHT22;49686;51.880;5.632;2023-03-01T03:26:54;-4.10;99.90
63537;DHT22;49686;51.880;5.632;2023-03-01T03:29:20;-4.00;99.90
63537;DHT22;49686;51.880;5.632;2023-03-01T03:31:47;-4.00;99.90
63537;DHT22;49686;51.880;5.632;2023-03-01T03:34:14;-4.10;99.90
63537;DHT22;49686;51.880;5.632;2023-03-01T03:36:42;-4.20;99.90
63537;DHT22;49686;51.880;5.632;2023-03-01T03:39:09;-4.30;99.90
63537;DHT22;49686;51.880;5.632;2023-03-01T03:41:36;-4.60;99.90
63537;DHT22;49686;51.880;5.632;2023-03-01T03:44:03;-4.70;99.90
63537;DHT22;49686;51.880;5.632;2023-03-01T03:46:29;-4.50;99.90
63537;DHT22;49686;51.880;5.632;2023-03-01T03:48:56;-4.60;99.90
63537;DHT22;49686;51.880;5.632;2023-03-01T03:51:24;-4.60;99.90
63537;DHT22;49686;51.880;5.632;2023-03-01T03:53:52;-4.40;99.90
63537;DHT22;49686;51.880;5.632;2023-03-01T03:56:18;-4.20;99.90
63537;DHT22;49686;51.880;5.632;2023-03-01T03:58:45;-4.10;99.90
63537;DHT22;49686;51.880;5.632;2023-03-01T04:01:12;-4.10;99.90
63537;DHT22;49686;51.880;5.632;2023-03-01T04:03:39;-4.10;99.90
63537;DHT22;49686;51.880;5.632;2023-03-01T04:06:09;-4.30;99.90
63537;DHT22;49686;51.880;5.632;2023-03-01T04:08:35;-4.30;99.90
63537;DHT22;49686;51.880;5.632;2023-03-01T04:11:04;-4.20;99.90
63537;DHT22;49686;51.880;5.632;2023-03-01T04:13:31;-4.30;99.90
63537;DHT22;49686;51.880;5.632;2023-03-01T04:15:58;-4.30;99.90
63537;DHT22;49686;51.880;5.632;2023-03-01T04:18:28;-4.30;99.90
63537;DHT22;49686;51.880;5.632;2023-03-01T04:20:54;-4.50;99.90
63537;DHT22;49686;51.880;5.632;2023-03-01T04:23:21;-4.40;99.90
63537;DHT22;49686;51.880;5.632;2023-03-01T04:25:50;-4.40;99.90
63537;DHT22;49686;51.880;5.632;2023-03-01T04:28:18;-4.40;99.90
63537;DHT22;49686;51.880;5.632;2023-03-01T04:30:45;-4.40;99.90
63537;DHT22;49686;51.880;5.632;2023-03-01T04:33:12;-4.30;99.90
63537;DHT22;49686;51.880;5.632;2023-03-01T04:35:38;-4.40;99.90
63537;DHT22;49686;51.880;5.632;2023-03-01T04:38:08;-4.40;99.90
63537;DHT22;49686;51.880;5.632;2023-03-01T04:40:35;-4.60;99.90
63537;DHT22;49686;51.880;5.632;2023-03-01T04:43:03;-4.70;99.90
63537;DHT22;49686;51.880;5.632;2023-03-01T04:45:33;-4.60;99.90
63537;DHT22;49686;51.880;5.632;2023-03-01T04:48:00;-4.60;99.90
63537;DHT22;49686;51.880;5.632;2023-03-01T04:50:27;-4.70;99.90
63537;DHT22;49686;51.880;5.632;2023-03-01T04:52:53;-4.80;99.90
63537;DHT22;49686;51.880;5.632;2023-03-01T04:55:20;-4.80;99.90
63537;DHT22;49686;51.880;5.632;2023-03-01T04:57:48;-4.80;99.90
63537;DHT22;49686;51.880;5.632;2023-03-01T05:00:15;-4.80;99.90
63537;DHT22;49686;51.880;5.632;2023-03-01T05:02:43;-4.80;99.90
63537;DHT22;49686;51.880;5.632;2023-03-01T05:05:10;-4.80;99.90
63537;DHT22;49686;51.880;5.632;2023-03-01T05:07:37;-4.90;99.90
63537;DHT22;49686;51.880;5.632;2023-03-01T05:10:04;-4.90;99.90
63537;DHT22;49686;51.880;5.632;2023-03-01T05:12:31;-4.90;99.90
63537;DHT22;49686;51.880;5.632;2023-03-01T05:14:58;-4.60;99.90
63537;DHT22;49686;51.880;5.632;2023-03-01T05:17:25;-4.70;99.90
63537;DHT22;49686;51.880;5.632;2023-03-01T05:19:53;-4.60;99.90
63537;DHT22;49686;51.880;5.632;2023-03-01T05:22:20;-4.70;99.90
63537;DHT22;49686;51.880;5.632;2023-03-01T05:24:46;-4.80;99.90
63537;DHT22;49686;51.880;5.632;2023-03-01T05:27:13;-4.80;99.90
63537;DHT22;49686;51.880;5.632;2023-03-01T05:29:41;-4.90;99.90
63537;DHT22;49686;51.880;5.632;2023-03-01T05:32:08;-4.90;99.90
63537;DHT22;49686;51.880;5.632;2023-03-01T05:34:38;-4.80;99.90
63537;DHT22;49686;51.880;5.632;2023-03-01T05:37:06;-4.80;99.90
63537;DHT22;49686;51.880;5.632;2023-03-01T05:39:33;-4.60;99.90
63537;DHT22;49686;51.880;5.632;2023-03-01T05:42:01;-4.60;99.90
63537;DHT22;49686;51.880;5.632;2023-03-01T05:44:28;-4.50;99.90
63537;DHT22;49686;51.880;5.632;2023-03-01T05:46:55;-4.50;99.90
63537;DHT22;49686;51.880;5.632;2023-03-01T05:49:22;-4.50;99.90
63537;DHT22;49686;51.880;5.632;2023-03-01T05:51:52;-4.50;99.90
63537;DHT22;49686;51.880;5.632;2023-03-01T05:54:21;-4.70;99.90
63537;DHT22;49686;51.880;5.632;2023-03-01T05:56:47;-4.80;99.90
63537;DHT22;49686;51.880;5.632;2023-03-01T05:59:14;-4.90;99.90
63537;DHT22;49686;51.880;5.632;2023-03-01T06:01:41;-5.00;99.90
63537;DHT22;49686;51.880;5.632;2023-03-01T06:04:08;-5.00;99.90
63537;DHT22;49686;51.880;5.632;2023-03-01T06:06:36;-5.10;99.90
63537;DHT22;49686;51.880;5.632;2023-03-01T06:09:03;-5.10;99.90
63537;DHT22;49686;51.880;5.632;2023-03-01T06:11:33;-5.10;99.90
63537;DHT22;49686;51.880;5.632;2023-03-01T06:14:00;-5.10;99.90
63537;DHT22;49686;51.880;5.632;2023-03-01T06:16:27;-5.00;99.90
63537;DHT22;49686;51.880;5.632;2023-03-01T06:18:54;-5.10;99.90
63537;DHT22;49686;51.880;5.632;2023-03-01T06:21:21;-5.20;99.90
63537;DHT22;49686;51.880;5.632;2023-03-01T06:23:48;-5.10;99.90
63537;DHT22;49686;51.880;5.632;2023-03-01T06:26:15;-5.10;99.90
63537;DHT22;49686;51.880;5.632;2023-03-01T06:28:43;-5.20;99.90
63537;DHT22;49686;51.880;5.632;2023-03-01T06:31:09;-5.40;99.90
63537;DHT22;49686;51.880;5.632;2023-03-01T06:33:36;-5.30;99.90
63537;DHT22;49686;51.880;5.632;2023-03-01T06:36:03;-5.30;99.90
63537;DHT22;49686;51.880;5.632;2023-03-01T06:38:30;-5.40;99.90
63537;DHT22;49686;51.880;5.632;2023-03-01T06:40:57;-5.40;99.90
63537;DHT22;49686;51.880;5.632;2023-03-01T06:43:24;-5.30;99.90
63537;DHT22;49686;51.880;5.632;2023-03-01T06:45:52;-5.40;99.90
63537;DHT22;49686;51.880;5.632;2023-03-01T06:48:19;-5.40;99.90
63537;DHT22;49686;51.880;5.632;2023-03-01T06:50:46;-5.50;99.90
63537;DHT22;49686;51.880;5.632;2023-03-01T06:53:12;-5.40;99.90
63537;DHT22;49686;51.880;5.632;2023-03-01T06:55:39;-5.30;99.90
63537;DHT22;49686;51.880;5.632;2023-03-01T06:58:06;-5.20;99.90
63537;DHT22;49686;51.880;5.632;2023-03-01T07:00:33;-5.20;99.90
63537;DHT22;49686;51.880;5.632;2023-03-01T07:03:02;-5.10;99.90
63537;DHT22;49686;51.880;5.632;2023-03-01T07:05:29;-5.10;99.90
63537;DHT22;49686;51.880;5.632;2023-03-01T07:07:56;-5.00;99.90
63537;DHT22;49686;51.880;5.632;2023-03-01T07:10:23;-5.00;99.90
63537;DHT22;49686;51.880;5.632;2023-03-01T07:12:49;-4.70;99.90
63537;DHT22;49686;51.880;5.632;2023-03-01T07:15:16;-4.60;99.90
63537;DHT22;49686;51.880;5.632;2023-03-01T07:17:43;-4.40;99.90
63537;DHT22;49686;51.880;5.632;2023-03-01T07:20:12;-4.30;99.90
63537;DHT22;49686;51.880;5.632;2023-03-01T07:22:40;-4.30;99.90
63537;DHT22;49686;51.880;5.632;2023-03-01T07:25:07;-4.00;99.90
63537;DHT22;49686;51.880;5.632;2023-03-01T07:27:34;-4.00;99.90
63537;DHT22;49686;51.880;5.632;2023-03-01T07:30:02;-3.90;99.90
63537;DHT22;49686;51.880;5.632;2023-03-01T07:32:29;-3.80;99.90
63537;DHT22;49686;51.880;5.632;2023-03-01T07:34:56;-3.70;99.90
63537;DHT22;49686;51.880;5.632;2023-03-01T07:37:24;-3.70;99.90
63537;DHT22;49686;51.880;5.632;2023-03-01T07:39:51;-3.50;99.90
63537;DHT22;49686;51.880;5.632;2023-03-01T07:42:18;-3.20;99.90
63537;DHT22;49686;51.880;5.632;2023-03-01T07:44:44;-3.10;99.90
63537;DHT22;49686;51.880;5.632;2023-03-01T07:47:11;-2.80;99.90
63537;DHT22;49686;51.880;5.632;2023-03-01T07:49:38;-2.60;99.90
63537;DHT22;49686;51.880;5.632;2023-03-01T07:52:05;-2.50;99.90
63537;DHT22;49686;51.880;5.632;2023-03-01T07:54:33;-2.30;99.90
63537;DHT22;49686;51.880;5.632;2023-03-01T07:57:00;-2.00;99.90
63537;DHT22;49686;51.880;5.632;2023-03-01T07:59:27;-1.80;99.90
63537;DHT22;49686;51.880;5.632;2023-03-01T08:01:54;-1.60;99.90
63537;DHT22;49686;51.880;5.632;2023-03-01T08:04:22;-1.50;99.90
63537;DHT22;49686;51.880;5.632;2023-03-01T08:06:49;-1.40;99.90
63537;DHT22;49686;51.880;5.632;2023-03-01T08:09:16;-1.30;99.90
63537;DHT22;49686;51.880;5.632;2023-03-01T08:11:44;-1.10;99.90
63537;DHT22;49686;51.880;5.632;2023-03-01T08:14:11;-1.00;99.90
63537;DHT22;49686;51.880;5.632;2023-03-01T08:16:38;-1.00;99.90
63537;DHT22;49686;51.880;5.632;2023-03-01T08:19:07;-0.80;99.90
63537;DHT22;49686;51.880;5.632;2023-03-01T08:21:34;-0.70;99.90
63537;DHT22;49686;51.880;5.632;2023-03-01T08:24:01;-0.50;99.90
63537;DHT22;49686;51.880;5.632;2023-03-01T08:26:28;-0.50;99.90
63537;DHT22;49686;51.880;5.632;2023-03-01T08:28:57;-0.30;99.90
63537;DHT22;49686;51.880;5.632;2023-03-01T08:31:26;-0.20;99.90
63537;DHT22;49686;51.880;5.632;2023-03-01T08:33:54;0.00;99.90
63537;DHT22;49686;51.880;5.632;2023-03-01T08:36:22;0.10;99.90
63537;DHT22;49686;51.880;5.632;2023-03-01T08:38:49;0.30;99.90
63537;DHT22;49686;51.880;5.632;2023-03-01T08:41:16;0.40;99.90
63537;DHT22;49686;51.880;5.632;2023-03-01T08:43:43;0.50;99.90
63537;DHT22;49686;51.880;5.632;2023-03-01T08:46:11;0.50;99.90
63537;DHT22;49686;51.880;5.632;2023-03-01T08:48:39;0.60;99.90
63537;DHT22;49686;51.880;5.632;2023-03-01T08:51:10;0.60;99.90
63537;DHT22;49686;51.880;5.632;2023-03-01T08:53:38;0.70;99.90
63537;DHT22;49686;51.880;5.632;2023-03-01T08:56:05;0.80;99.90
63537;DHT22;49686;51.880;5.632;2023-03-01T08:58:32;0.80;99.90
63537;DHT22;49686;51.880;5.632;2023-03-01T09:00:59;0.80;99.90
63537;DHT22;49686;51.880;5.632;2023-03-01T09:03:28;0.80;99.90
63537;DHT22;49686;51.880;5.632;2023-03-01T09:06:00;0.80;99.90
63537;DHT22;49686;51.880;5.632;2023-03-01T09:08:26;1.20;99.90
63537;DHT22;49686;51.880;5.632;2023-03-01T09:10:54;1.40;99.90
63537;DHT22;49686;51.880;5.632;2023-03-01T09:13:21;1.60;99.90
63537;DHT22;49686;51.880;5.632;2023-03-01T09:15:48;1.70;99.90
63537;DHT22;49686;51.880;5.632;2023-03-01T09:18:14;1.50;99.90
63537;DHT22;49686;51.880;5.632;2023-03-01T09:20:43;1.70;99.90
63537;DHT22;49686;51.880;5.632;2023-03-01T09:23:10;1.70;99.90
63537;DHT22;49686;51.880;5.632;2023-03-01T09:25:37;1.80;99.90
63537;DHT22;49686;51.880;5.632;2023-03-01T09:28:04;2.00;99.90
63537;DHT22;49686;51.880;5.632;2023-03-01T09:30:31;2.00;99.90
63537;DHT22;49686;51.880;5.632;2023-03-01T09:32:58;2.00;99.90
63537;DHT22;49686;51.880;5.632;2023-03-01T09:35:29;2.00;99.90
63537;DHT22;49686;51.880;5.632;2023-03-01T09:37:58;1.90;99.90
63537;DHT22;49686;51.880;5.632;2023-03-01T09:40:26;2.10;99.90
63537;DHT22;49686;51.880;5.632;2023-03-01T09:42:59;2.20;99.90
63537;DHT22;49686;51.880;5.632;2023-03-01T09:45:34;2.10;99.90
63537;DHT22;49686;51.880;5.632;2023-03-01T09:48:03;2.50;99.90
63537;DHT22;49686;51.880;5.632;2023-03-01T09:50:35;2.70;99.90
63537;DHT22;49686;51.880;5.632;2023-03-01T09:53:06;2.70;99.90
63537;DHT22;49686;51.880;5.632;2023-03-01T09:55:38;2.40;99.90
63537;DHT22;49686;51.880;5.632;2023-03-01T09:58:31;2.50;99.90
63537;DHT22;49686;51.880;5.632;2023-03-01T10:01:04;2.40;99.90
63537;DHT22;49686;51.880;5.632;2023-03-01T10:03:41;2.60;99.90
63537;DHT22;49686;51.880;5.632;2023-03-01T10:06:14;2.40;99.90
63537;DHT22;49686;51.880;5.632;2023-03-01T10:09:02;2.40;99.90
63537;DHT22;49686;51.880;5.632;2023-03-01T10:11:32;2.50;99.90
63537;DHT22;49686;51.880;5.632;2023-03-01T10:14:03;2.70;99.90
63537;DHT22;49686;51.880;5.632;2023-03-01T10:16:40;2.70;99.90
63537;DHT22;49686;51.880;5.632;2023-03-01T10:19:12;2.60;99.90
63537;DHT22;49686;51.880;5.632;2023-03-01T10:21:45;2.60;99.90
63537;DHT22;49686;51.880;5.632;2023-03-01T10:24:16;2.90;99.90
63537;DHT22;49686;51.880;5.632;2023-03-01T10:26:54;2.90;99.90
63537;DHT22;49686;51.880;5.632;2023-03-01T10:29:24;2.70;99.90
63537;DHT22;49686;51.880;5.632;2023-03-01T10:31:53;3.20;99.90
63537;DHT22;49686;51.880;5.632;2023-03-01T10:34:22;3.30;99.90
63537;DHT22;49686;51.880;5.632;2023-03-01T10:36:56;3.20;99.90
63537;DHT22;49686;51.880;5.632;2023-03-01T10:39:26;3.40;99.90
63537;DHT22;49686;51.880;5.632;2023-03-01T10:41:57;3.00;99.90
63537;DHT22;49686;51.880;5.632;2023-03-01T10:44:48;3.20;99.90
63537;DHT22;49686;51.880;5.632;2023-03-01T10:47:18;3.00;99.90
63537;DHT22;49686;51.880;5.632;2023-03-01T10:50:00;3.20;99.90
63537;DHT22;49686;51.880;5.632;2023-03-01T10:52:58;3.30;99.90
63537;DHT22;49686;51.880;5.632;2023-03-01T10:55:27;3.30;99.90
63537;DHT22;49686;51.880;5.632;2023-03-01T10:58:07;3.60;99.90
63537;DHT22;49686;51.880;5.632;2023-03-01T11:00:46;3.30;99.90
63537;DHT22;49686;51.880;5.632;2023-03-01T11:03:14;3.50;99.90
63537;DHT22;49686;51.880;5.632;2023-03-01T11:05:52;3.40;99.90
63537;DHT22;49686;51.880;5.632;2023-03-01T11:08:30;3.30;99.90
63537;DHT22;49686;51.880;5.632;2023-03-01T11:11:14;3.70;99.90
63537;DHT22;49686;51.880;5.632;2023-03-01T11:13:50;3.60;99.90
63537;DHT22;49686;51.880;5.632;2023-03-01T11:16:26;3.80;99.90
63537;DHT22;49686;51.880;5.632;2023-03-01T11:18:58;3.90;99.90
63537;DHT22;49686;51.880;5.632;2023-03-01T11:21:27;3.60;99.90
63537;DHT22;49686;51.880;5.632;2023-03-01T11:23:58;3.90;99.90
63537;DHT22;49686;51.880;5.632;2023-03-01T11:26:27;3.70;99.90
63537;DHT22;49686;51.880;5.632;2023-03-01T11:28:58;3.90;99.90
63537;DHT22;49686;51.880;5.632;2023-03-01T11:31:28;3.50;99.90
63537;DHT22;49686;51.880;5.632;2023-03-01T11:34:00;3.60;99.90
63537;DHT22;49686;51.880;5.632;2023-03-01T11:36:34;3.90;99.90
63537;DHT22;49686;51.880;5.632;2023-03-01T11:39:05;3.90;99.90
63537;DHT22;49686;51.880;5.632;2023-03-01T11:41:41;3.90;99.90
63537;DHT22;49686;51.880;5.632;2023-03-01T11:44:14;4.00;99.90
63537;DHT22;49686;51.880;5.632;2023-03-01T11:47:10;4.40;99.90
63537;DHT22;49686;51.880;5.632;2023-03-01T11:50:02;3.90;99.90
63537;DHT22;49686;51.880;5.632;2023-03-01T11:52:43;4.10;99.90
63537;DHT22;49686;51.880;5.632;2023-03-01T11:55:20;4.50;99.90
63537;DHT22;49686;51.880;5.632;2023-03-01T11:58:21;4.30;99.90
63537;DHT22;49686;51.880;5.632;2023-03-01T12:04:02;4.40;98.80
63537;DHT22;49686;51.880;5.632;2023-03-01T12:06:50;4.30;99.10
63537;DHT22;49686;51.880;5.632;2023-03-01T12:09:41;4.20;99.10
63537;DHT22;49686;51.880;5.632;2023-03-01T12:12:32;4.30;98.00
63537;DHT22;49686;51.880;5.632;2023-03-01T12:15:11;4.30;97.60
63537;DHT22;49686;51.880;5.632;2023-03-01T12:18:04;4.80;98.10
63537;DHT22;49686;51.880;5.632;2023-03-01T12:20:39;4.70;97.30
63537;DHT22;49686;51.880;5.632;2023-03-01T12:23:25;4.60;98.00
63537;DHT22;49686;51.880;5.632;2023-03-01T12:26:06;4.50;98.20
63537;DHT22;49686;51.880;5.632;2023-03-01T12:28:53;4.70;98.40
63537;DHT22;49686;51.880;5.632;2023-03-01T12:31:43;5.00;97.00
63537;DHT22;49686;51.880;5.632;2023-03-01T12:34:25;4.80;97.20
63537;DHT22;49686;51.880;5.632;2023-03-01T12:37:08;4.90;96.90
63537;DHT22;49686;51.880;5.632;2023-03-01T12:39:45;4.60;95.80
63537;DHT22;49686;51.880;5.632;2023-03-01T12:42:23;4.60;95.80
63537;DHT22;49686;51.880;5.632;2023-03-01T12:45:24;4.70;96.30
63537;DHT22;49686;51.880;5.632;2023-03-01T12:48:07;4.90;95.50
63537;DHT22;49686;51.880;5.632;2023-03-01T12:50:39;4.90;95.90
63537;DHT22;49686;51.880;5.632;2023-03-01T12:53:23;4.90;95.60
63537;DHT22;49686;51.880;5.632;2023-03-01T12:55:50;4.90;95.10
63537;DHT22;49686;51.880;5.632;2023-03-01T12:58:24;4.70;96.20
63537;DHT22;49686;51.880;5.632;2023-03-01T13:01:05;5.30;95.80
63537;DHT22;49686;51.880;5.632;2023-03-01T13:03:53;5.20;95.90
63537;DHT22;49686;51.880;5.632;2023-03-01T13:06:31;5.20;95.60
63537;DHT22;49686;51.880;5.632;2023-03-01T13:09:16;5.10;95.30
63537;DHT22;49686;51.880;5.632;2023-03-01T13:11:45;5.50;95.20
63537;DHT22;49686;51.880;5.632;2023-03-01T13:14:37;5.20;94.40
63537;DHT22;49686;51.880;5.632;2023-03-01T13:17:39;5.20;94.80
63537;DHT22;49686;51.880;5.632;2023-03-01T13:20:13;4.90;94.50
63537;DHT22;49686;51.880;5.632;2023-03-01T13:22:41;5.10;94.60
63537;DHT22;49686;51.880;5.632;2023-03-01T13:25:20;5.60;95.20
63537;DHT22;49686;51.880;5.632;2023-03-01T13:30:53;5.20;95.60
63537;DHT22;49686;51.880;5.632;2023-03-01T13:33:44;5.20;95.10
63537;DHT22;49686;51.880;5.632;2023-03-01T13:36:47;5.40;94.70
63537;DHT22;49686;51.880;5.632;2023-03-01T13:39:31;5.50;94.40
63537;DHT22;49686;51.880;5.632;2023-03-01T13:42:31;5.80;94.20
63537;DHT22;49686;51.880;5.632;2023-03-01T13:44:58;5.20;93.90
63537;DHT22;49686;51.880;5.632;2023-03-01T13:47:25;5.70;94.10
63537;DHT22;49686;51.880;5.632;2023-03-01T13:49:57;6.20;93.90
63537;DHT22;49686;51.880;5.632;2023-03-01T13:52:36;5.40;93.30
63537;DHT22;49686;51.880;5.632;2023-03-01T13:55:10;5.40;94.00
63537;DHT22;49686;51.880;5.632;2023-03-01T13:57:43;5.50;93.90
63537;DHT22;49686;51.880;5.632;2023-03-01T14:02:38;5.60;93.70
63537;DHT22;49686;51.880;5.632;2023-03-01T14:05:09;5.50;92.70
63537;DHT22;49686;51.880;5.632;2023-03-01T14:07:36;5.40;92.80
63537;DHT22;49686;51.880;5.632;2023-03-01T14:10:05;5.50;92.90
63537;DHT22;49686;51.880;5.632;2023-03-01T14:12:40;5.30;92.60
63537;DHT22;49686;51.880;5.632;2023-03-01T14:15:17;5.10;92.40
63537;DHT22;49686;51.880;5.632;2023-03-01T14:17:55;5.30;92.80
63537;DHT22;49686;51.880;5.632;2023-03-01T14:20:28;5.80;92.80
63537;DHT22;49686;51.880;5.632;2023-03-01T14:22:59;5.50;92.10
63537;DHT22;49686;51.880;5.632;2023-03-01T14:25:29;5.30;92.60
63537;DHT22;49686;51.880;5.632;2023-03-01T14:27:58;5.40;92.30
63537;DHT22;49686;51.880;5.632;2023-03-01T14:30:31;5.30;93.10
63537;DHT22;49686;51.880;5.632;2023-03-01T14:33:00;5.00;93.00
63537;DHT22;49686;51.880;5.632;2023-03-01T14:35:30;5.30;93.10
63537;DHT22;49686;51.880;5.632;2023-03-01T14:37:58;5.60;93.00
63537;DHT22;49686;51.880;5.632;2023-03-01T14:40:28;5.60;92.90
63537;DHT22;49686;51.880;5.632;2023-03-01T14:42:59;5.60;92.60
63537;DHT22;49686;51.880;5.632;2023-03-01T14:45:28;5.30;92.80
63537;DHT22;49686;51.880;5.632;2023-03-01T14:47:55;5.70;91.90
63537;DHT22;49686;51.880;5.632;2023-03-01T14:50:27;5.90;92.30
63537;DHT22;49686;51.880;5.632;2023-03-01T14:52:58;5.80;91.80
63537;DHT22;49686;51.880;5.632;2023-03-01T14:55:28;5.60;91.90
63537;DHT22;49686;51.880;5.632;2023-03-01T14:57:56;5.40;91.50
63537;DHT22;49686;51.880;5.632;2023-03-01T15:00:26;5.50;91.30
63537;DHT22;49686;51.880;5.632;2023-03-01T15:02:55;5.60;91.40
63537;DHT22;49686;51.880;5.632;2023-03-01T15:05:27;5.60;91.80
63537;DHT22;49686;51.880;5.632;2023-03-01T15:07:57;5.50;91.50
63537;DHT22;49686;51.880;5.632;2023-03-01T15:10:26;5.50;92.00
63537;DHT22;49686;51.880;5.632;2023-03-01T15:12:53;5.30;92.10
63537;DHT22;49686;51.880;5.632;2023-03-01T15:15:38;5.40;92.30
63537;DHT22;49686;51.880;5.632;2023-03-01T15:18:16;5.30;92.20
63537;DHT22;49686;51.880;5.632;2023-03-01T15:20:44;5.30;92.80
63537;DHT22;49686;51.880;5.632;2023-03-01T15:23:21;5.30;92.70
63537;DHT22;49686;51.880;5.632;2023-03-01T15:25:49;5.20;93.10
63537;DHT22;49686;51.880;5.632;2023-03-01T15:28:19;5.00;93.20
63537;DHT22;49686;51.880;5.632;2023-03-01T15:30:52;4.90;92.90
63537;DHT22;49686;51.880;5.632;2023-03-01T15:33:29;4.90;93.30
63537;DHT22;49686;51.880;5.632;2023-03-01T15:35:57;4.80;93.10
63537;DHT22;49686;51.880;5.632;2023-03-01T15:38:35;4.80;93.40
63537;DHT22;49686;51.880;5.632;2023-03-01T15:41:03;4.80;93.20
63537;DHT22;49686;51.880;5.632;2023-03-01T15:43:43;4.60;93.20
63537;DHT22;49686;51.880;5.632;2023-03-01T15:48:53;4.60;92.90
63537;DHT22;49686;51.880;5.632;2023-03-01T15:51:22;4.50;92.90
63537;DHT22;49686;51.880;5.632;2023-03-01T15:53:52;4.50;93.00
63537;DHT22;49686;51.880;5.632;2023-03-01T15:56:20;4.50;92.70
63537;DHT22;49686;51.880;5.632;2023-03-01T15:58:47;4.50;92.70
63537;DHT22;49686;51.880;5.632;2023-03-01T16:01:15;4.40;92.10
63537;DHT22;49686;51.880;5.632;2023-03-01T16:03:42;4.30;92.20
63537;DHT22;49686;51.880;5.632;2023-03-01T16:06:09;4.30;92.60
63537;DHT22;49686;51.880;5.632;2023-03-01T16:08:36;4.30;93.00
63537;DHT22;49686;51.880;5.632;2023-03-01T16:11:05;4.20;92.50